sensor_id;sensor_type;location;lat;lon;timestamp;temperature;humidity
31687;DHT22;18285;51.330;4.946;2023-07-28T00:13:45;23.80;58.60
31687;DHT22;18285;51.330;4.946;2023-07-28T00:37:55;23.80;58.50
31687;DHT22;18285;51.330;4.946;2023-07-28T01:02:06;23.80;58.40
31687;DHT22;18285;51.330;4.946;2023-07-28T01:26:51;23.80;58.30
31687;DHT22;18285;51.330;4.946;2023-07-28T01:50:55;23.80;58.10
31687;DHT22;18285;51.330;4.946;2023-07-28T02:15:07;23.80;58.20
31687;DHT22;18285;51.330;4.946;2023-07-28T02:39:17;23.80;58.10
31687;DHT22;18285;51.330;4.946;2023-07-28T03:03:28;23.80;58.00
31687;DHT22;18285;51.330;4.946;2023-07-28T03:27:39;23.80;58.00
31687;DHT22;18285;51.330;4.946;2023-07-28T03:51:49;23.80;57.90
31687;DHT22;18285;51.330;4.946;2023-07-28T04:16:00;23.90;57.90
31687;DHT22;18285;51.330;4.946;2023-07-28T04:40:11;23.80;57.80
31687;DHT22;18285;51.330;4.946;2023-07-28T05:04:22;23.70;57.70
31687;DHT22;18285;51.330;4.946;2023-07-28T05:28:34;23.80;57.80
31687;DHT22;18285;51.330;4.946;2023-07-28T05:52:45;23.80;57.70
31687;DHT22;18285;51.330;4.946;2023-07-28T06:16:57;23.90;57.60
31687;DHT22;18285;51.330;4.946;2023-07-28T06:41:07;23.90;57.50
31687;DHT22;18285;51.330;4.946;2023-07-28T07:05:18;23.90;57.40
31687;DHT22;18285;51.330;4.946;2023-07-28T07:29:29;23.90;58.00
31687;DHT22;18285;51.330;4.946;2023-07-28T07:53:40;23.90;57.30
31687;DHT22;18285;51.330;4.946;2023-07-28T08:17:50;23.90;57.30
31687;DHT22;18285;51.330;4.946;2023-07-28T08:42:02;23.90;59.00
31687;DHT22;18285;51.330;4.946;2023-07-28T09:06:13;23.90;58.70
31687;DHT22;18285;51.330;4.946;2023-07-28T09:30:25;23.90;58.90
31687;DHT22;18285;51.330;4.946;2023-07-28T09:54:40;23.90;58.70
31687;DHT22;18285;51.330;4.946;2023-07-28T10:18:54;23.90;58.10
31687;DHT22;18285;51.330;4.946;2023-07-28T10:43:05;24.00;57.70
31687;DHT22;18285;51.330;4.946;2023-07-28T11:07:15;24.00;56.70
31687;DHT22;18285;51.330;4.946;2023-07-28T11:31:26;24.00;56.90
31687;DHT22;18285;51.330;4.946;2023-07-28T11:55:39;24.00;57.40
31687;DHT22;18285;51.330;4.946;2023-07-28T12:20:05;24.00;57.30
31687;DHT22;18285;51.330;4.946;2023-07-28T12:44:24;24.10;57.10
31687;DHT22;18285;51.330;4.946;2023-07-28T13:08:35;24.10;56.80
31687;DHT22;18285;51.330;4.946;2023-07-28T13:32:46;24.10;56.70
31687;DHT22;18285;51.330;4.946;2023-07-28T13:56:57;24.10;56.70
31687;DHT22;18285;51.330;4.946;2023-07-28T14:21:07;24.10;56.90
31687;DHT22;18285;51.330;4.946;2023-07-28T14:45:18;24.20;57.30
31687;DHT22;18285;51.330;4.946;2023-07-28T15:09:31;24.10;57.10
31687;DHT22;18285;51.330;4.946;2023-07-28T15:33:41;24.10;57.10
31687;DHT22;18285;51.330;4.946;2023-07-28T15:57:52;24.10;57.30
31687;DHT22;18285;51.330;4.946;2023-07-28T16:22:03;24.20;57.10
31687;DHT22;18285;51.330;4.946;2023-07-28T16:46:14;24.20;56.90
31687;DHT22;18285;51.330;4.946;2023-07-28T17:10:25;24.20;56.60
31687;DHT22;18285;51.330;4.946;2023-07-28T17:34:36;24.20;56.60
31687;DHT22;18285;51.330;4.946;2023-07-28T17:58:47;24.20;57.00
31687;DHT22;18285;51.330;4.946;2023-07-28T18:22:57;24.30;56.70
31687;DHT22;18285;51.330;4.946;2023-07-28T18:47:08;24.30;56.80
31687;DHT22;18285;51.330;4.946;2023-07-28T19:11:19;24.30;57.00
31687;DHT22;18285;51.330;4.946;2023-07-28T19:35:29;24.30;57.10
31687;DHT22;18285;51.330;4.946;2023-07-28T19:59:40;24.40;58.80
31687;DHT22;18285;51.330;4.946;2023-07-28T20:23:51;24.40;59.20
31687;DHT22;18285;51.330;4.946;2023-07-28T20:48:02;24.40;59.50
31687;DHT22;18285;51.330;4.946;2023-07-28T21:12:12;24.30;59.60
31687;DHT22;18285;51.330;4.946;2023-07-28T21:36:24;24.10;59.70
31687;DHT22;18285;51.330;4.946;2023-07-28T22:00:35;24.00;62.20
31687;DHT22;18285;51.330;4.946;2023-07-28T22:24:45;24.10;61.20
31687;DHT22;18285;51.330;4.946;2023-07-28T22:48:56;24.10;60.50
31687;DHT22;18285;51.330;4.946;2023-07-28T23:13:07;24.10;60.10
31687;DHT22;18285;51.330;4.946;2023-07-28T23:37:17;24.00;61.50
